CheckWX is a tool to help pilots better visualize weather data.  It is not intended as a substitute for an official pre-flight weather briefing.

20:00:32 UTC

KRTN METAR
Raton Municipal / Crews Field Airport
Raton, New Mexico, USA
Current

8 mins ago

KRTN 101953Z AUTO 22007G16KT 170V240 10SM CLR 36/M05 A3022 RMK AO2 SLP115 T03611050
Observed
Jul-10 @ 19:53 UTC
Wind
  • 220° at 7 KTS
  • Gusting to 16 KTS
Visibility
10 SM
Flight Rules
VFR
Cloud Levels
  • Clear skies
Temperature
36°C / 97°F
Dewpoint
-5°C / 23°F
Humidity
7%
Altimeter
30.22" Hg
Pressure
1023.42 hPa
Previous

1 hour ago

KRTN 101853Z AUTO VRB04KT 10SM CLR 34/M01 A3024 RMK AO2 SLP123 T03391011
Observed
Jul-10 @ 18:53 UTC
Wind
  • Variable at 4 KTS
Visibility
10 SM
Flight Rules
VFR
Cloud Levels
  • Clear skies
Temperature
34°C / 93°F
Dewpoint
-1°C / 30°F
Humidity
11%
Altimeter
30.24" Hg
Pressure
1024.02 hPa
Previous

2 hours ago

KRTN 101753Z AUTO 16009G17KT 10SM CLR 33/01 A3026 RMK AO2 SLP130 T03330011 10333 20133 58005
Observed
Jul-10 @ 17:53 UTC
Wind
  • 160° at 9 KTS
  • Gusting to 17 KTS
Visibility
10 SM
Flight Rules
VFR
Cloud Levels
  • Clear skies
Temperature
33°C / 91°F
Dewpoint
C / 34°F
Humidity
13%
Altimeter
30.26" Hg
Pressure
1024.72 hPa